createdAt,value
2023-11-25T00:01:41.697Z,57.91
2023-11-25T00:06:45.850Z,57.48
2023-11-25T00:11:49.644Z,57.93
2023-11-25T00:16:57.234Z,57.85
2023-11-25T00:22:00.872Z,57.82
2023-11-25T00:27:04.960Z,57.63
2023-11-25T00:32:10.296Z,57.31
2023-11-25T00:37:13.794Z,57.68
2023-11-25T00:42:17.525Z,57.40
2023-11-25T00:47:23.678Z,56.94
2023-11-25T00:52:27.223Z,57.28
2023-11-25T00:57:30.931Z,56.73
2023-11-25T01:02:36.786Z,57.21
2023-11-25T01:07:40.371Z,57.27
2023-11-25T01:12:43.967Z,57.37
2023-11-25T01:17:49.005Z,57.69
2023-11-25T01:22:52.707Z,57.83
2023-11-25T01:27:56.522Z,57.62
2023-11-25T01:33:03.436Z,57.02
2023-11-25T01:38:07.173Z,57.57
2023-11-25T01:43:12.883Z,57.13
2023-11-25T01:48:18.073Z,57.63
2023-11-25T01:53:22.451Z,58.02
2023-11-25T01:58:26.909Z,57.37
2023-11-25T02:03:32.894Z,57.54
2023-11-25T02:08:36.538Z,57.43
2023-11-25T02:13:40.337Z,58.47
2023-11-25T02:18:45.903Z,58.22
2023-11-25T02:23:50.729Z,57.63
2023-11-25T02:28:54.243Z,57.74
2023-11-25T02:33:57.879Z,58.31
2023-11-25T02:39:03.231Z,57.51
2023-11-25T02:44:08.660Z,57.46
2023-11-25T02:49:12.383Z,57.38
2023-11-25T02:54:17.499Z,57.40
2023-11-25T02:59:20.985Z,57.50
2023-11-25T03:04:28.348Z,57.17
2023-11-25T03:09:35.062Z,57.66
2023-11-25T03:14:38.538Z,57.62
2023-11-25T03:19:42.033Z,58.00
2023-11-25T03:24:47.195Z,57.42
2023-11-25T03:29:50.869Z,58.09
2023-11-25T03:34:54.419Z,57.77
2023-11-25T03:39:59.441Z,57.35
2023-11-25T03:45:02.933Z,57.11
2023-11-25T03:50:09.903Z,57.59
2023-11-25T03:55:15.245Z,57.64
2023-11-25T04:00:20.283Z,58.08
2023-11-25T04:05:25.195Z,57.42
2023-11-25T04:10:30.239Z,57.54
2023-11-25T04:15:34.129Z,57.32
2023-11-25T04:20:37.989Z,57.37
2023-11-25T04:25:44.954Z,57.16
2023-11-25T04:30:48.714Z,57.64
2023-11-25T04:35:52.758Z,57.06
2023-11-25T04:40:58.302Z,57.31
2023-11-25T04:46:05.974Z,57.62
2023-11-25T04:51:10.588Z,57.18
2023-11-25T04:56:17.241Z,56.99
2023-11-25T05:01:21.148Z,56.73
2023-11-25T05:06:24.872Z,56.85
2023-11-25T05:11:30.034Z,56.94
2023-11-25T05:16:33.585Z,57.22
2023-11-25T05:21:37.170Z,56.95
2023-11-25T05:26:42.082Z,56.63
2023-11-25T05:31:45.639Z,57.05
2023-11-25T05:36:49.666Z,57.04
2023-11-25T05:41:54.825Z,57.66
2023-11-25T05:46:58.615Z,57.12
2023-11-25T05:52:02.288Z,56.25
2023-11-25T05:57:07.589Z,56.15
2023-11-25T06:02:11.112Z,55.60
2023-11-25T06:07:28.571Z,55.91
2023-11-25T06:12:34.159Z,55.63
2023-11-25T06:17:38.359Z,55.42
2023-11-25T06:22:42.785Z,54.57
2023-11-25T06:27:48.570Z,54.28
2023-11-25T06:32:52.557Z,54.34
2023-11-25T06:37:56.367Z,54.17
2023-11-25T06:43:01.899Z,52.79
2023-11-25T06:48:05.870Z,51.53
2023-11-25T06:53:09.849Z,51.12
2023-11-25T06:58:15.085Z,51.53
2023-11-25T07:03:18.753Z,51.82
2023-11-25T07:08:22.250Z,52.01
2023-11-25T07:13:29.297Z,51.89
2023-11-25T07:18:34.419Z,52.19
2023-11-25T07:23:38.115Z,52.24
2023-11-25T07:28:44.818Z,52.56
2023-11-25T07:33:51.341Z,52.88
2023-11-25T07:38:55.031Z,52.71
2023-11-25T07:44:00.052Z,52.90
2023-11-25T07:49:03.834Z,52.71
2023-11-25T07:54:09.882Z,52.48
2023-11-25T07:59:14.981Z,52.71
2023-11-25T08:04:18.717Z,52.49
2023-11-25T08:09:22.654Z,52.15
2023-11-25T08:14:27.845Z,51.57
2023-11-25T08:19:31.627Z,51.52
2023-11-25T08:24:36.788Z,51.39
2023-11-25T08:29:46.182Z,51.24
2023-11-25T08:34:51.379Z,51.34
2023-11-25T08:39:55.024Z,51.03
2023-11-25T08:45:02.632Z,50.72
2023-11-25T08:50:11.669Z,50.83
2023-11-25T08:55:19.775Z,50.51
2023-11-25T09:00:25.664Z,50.08
2023-11-25T09:05:30.082Z,49.92
2023-11-25T09:10:35.592Z,49.78
2023-11-25T09:15:42.190Z,49.74
2023-11-25T09:20:46.481Z,49.87
2023-11-25T09:25:50.031Z,49.72
2023-11-25T09:30:55.159Z,50.04
2023-11-25T09:35:58.860Z,49.98
2023-11-25T09:41:02.538Z,50.15
2023-11-25T09:46:08.326Z,50.41
2023-11-25T09:51:15.580Z,50.30
2023-11-25T09:56:19.985Z,50.64
2023-11-25T10:01:25.552Z,50.54
2023-11-25T10:06:31.161Z,50.41
2023-11-25T10:11:35.829Z,50.62
2023-11-25T10:16:43.451Z,50.27
2023-11-25T10:21:48.200Z,50.48
2023-11-25T10:26:52.541Z,50.16
2023-11-25T10:31:59.208Z,50.49
2023-11-25T10:37:03.197Z,50.72
2023-11-25T10:42:08.930Z,50.74
2023-11-25T10:47:31.490Z,50.90
2023-11-25T10:52:39.987Z,50.94
2023-11-25T10:57:43.998Z,51.17
2023-11-25T11:02:52.089Z,51.54
2023-11-25T11:08:03.300Z,51.13
2023-11-25T11:13:10.795Z,51.43
2023-11-25T11:18:21.614Z,51.24
2023-11-25T11:23:26.520Z,51.75
2023-11-25T11:28:42.940Z,51.61
2023-11-25T11:33:48.136Z,51.61
2023-11-25T11:38:54.171Z,51.86
2023-11-25T11:44:04.706Z,51.98
2023-11-25T11:49:10.691Z,52.16
2023-11-25T11:54:28.024Z,51.65
2023-11-25T12:00:13.384Z,51.47
2023-11-25T12:05:18.742Z,51.82
2023-11-25T12:10:22.577Z,51.82
2023-11-25T12:15:26.109Z,51.81
2023-11-25T12:20:32.577Z,51.96
2023-11-25T12:25:37.816Z,52.53
2023-11-25T12:30:42.585Z,52.37
2023-11-25T12:35:48.126Z,52.94
2023-11-25T12:40:51.643Z,53.34
2023-11-25T12:45:55.177Z,53.69
2023-11-25T12:51:06.441Z,53.38
2023-11-25T12:56:15.784Z,53.48
2023-11-25T13:01:26.582Z,53.38
2023-11-25T13:06:32.165Z,53.62
2023-11-25T13:11:36.658Z,53.94
2023-11-25T13:16:40.364Z,53.52
2023-11-25T13:21:45.518Z,53.88
2023-11-25T13:26:53.328Z,53.73
2023-11-25T13:31:57.833Z,54.16
2023-11-25T13:37:04.068Z,53.72
2023-11-25T13:42:09.059Z,54.16
2023-11-25T13:47:13.032Z,54.38
2023-11-25T13:52:17.954Z,53.99
2023-11-25T13:57:21.593Z,54.79
2023-11-25T14:02:28.992Z,54.19
2023-11-25T14:07:34.499Z,54.42
2023-11-25T14:12:38.919Z,54.05
2023-11-25T14:17:42.891Z,54.15
2023-11-25T14:22:49.227Z,54.16
2023-11-25T14:27:53.253Z,54.36
2023-11-25T14:32:56.969Z,54.78
2023-11-25T14:38:05.521Z,54.34
2023-11-25T14:43:10.997Z,54.35
2023-11-25T14:48:14.616Z,54.33
2023-11-25T14:53:19.685Z,54.86
2023-11-25T14:58:24.706Z,54.82
2023-11-25T15:03:29.340Z,54.62
2023-11-25T15:08:36.435Z,54.68
2023-11-25T15:13:40.079Z,54.49
2023-11-25T15:18:43.832Z,54.51
2023-11-25T15:23:48.868Z,54.86
2023-11-25T15:28:55.743Z,54.64
2023-11-25T15:33:59.361Z,55.49
2023-11-25T15:39:06.047Z,55.39
2023-11-25T15:44:09.747Z,55.71
2023-11-25T15:49:13.732Z,55.04
2023-11-25T15:54:18.664Z,55.89
2023-11-25T15:59:25.477Z,55.40
2023-11-25T16:04:29.210Z,55.67
2023-11-25T16:09:36.897Z,55.33
2023-11-25T16:14:41.451Z,55.42
2023-11-25T16:19:45.280Z,56.35
2023-11-25T16:24:50.602Z,55.84
2023-11-25T16:29:56.233Z,55.97
2023-11-25T16:35:00.409Z,55.97
2023-11-25T16:40:06.999Z,56.39
2023-11-25T16:45:11.003Z,57.01
2023-11-25T16:50:15.335Z,56.61
2023-11-25T16:55:20.811Z,56.13
2023-11-25T17:00:24.536Z,56.49
2023-11-25T17:05:29.102Z,56.04
2023-11-25T17:10:34.213Z,56.27
2023-11-25T17:15:38.348Z,56.17
2023-11-25T17:20:42.037Z,56.85
2023-11-25T17:25:47.112Z,56.51
2023-11-25T17:30:50.810Z,56.52
2023-11-25T17:35:54.276Z,57.53
2023-11-25T17:40:59.342Z,57.11
2023-11-25T17:46:04.013Z,57.26
2023-11-25T17:51:08.410Z,58.60
2023-11-25T17:56:13.583Z,57.93
2023-11-25T18:01:17.609Z,57.39
2023-11-25T18:06:21.285Z,57.81
2023-11-25T18:11:27.045Z,57.30
2023-11-25T18:16:30.792Z,57.51
2023-11-25T18:21:34.286Z,57.96
2023-11-25T18:26:39.219Z,57.83
2023-11-25T18:31:42.708Z,58.35
2023-11-25T18:36:46.162Z,58.09
2023-11-25T18:41:51.534Z,57.71
2023-11-25T18:46:55.470Z,57.70
2023-11-25T18:52:02.652Z,57.39
2023-11-25T18:57:08.627Z,57.63
2023-11-25T19:02:12.174Z,57.15
2023-11-25T19:07:16.238Z,57.21
2023-11-25T19:12:21.461Z,57.45
2023-11-25T19:17:25.282Z,57.17
2023-11-25T19:22:29.076Z,57.32
2023-11-25T19:27:34.225Z,57.55
2023-11-25T19:32:38.339Z,57.48
2023-11-25T19:37:42.215Z,57.66
2023-11-25T19:42:47.162Z,57.20
2023-11-25T19:47:50.899Z,56.78
2023-11-25T19:52:54.643Z,56.60
2023-11-25T19:57:59.942Z,56.43
2023-11-25T20:03:04.321Z,56.80
2023-11-25T20:08:09.819Z,56.31
2023-11-25T20:13:16.636Z,56.79
2023-11-25T20:18:20.453Z,56.18
2023-11-25T20:23:27.764Z,56.20
2023-11-25T20:28:32.724Z,56.47
2023-11-25T20:33:37.258Z,57.11
2023-11-25T20:38:42.741Z,56.75
2023-11-25T20:43:47.969Z,56.71
2023-11-25T20:48:51.883Z,56.88
2023-11-25T20:53:55.556Z,56.64
2023-11-25T20:59:02.053Z,56.77
2023-11-25T21:04:06.295Z,56.57
2023-11-25T21:09:10.204Z,56.87
2023-11-25T21:14:15.132Z,56.75
2023-11-25T21:19:19.435Z,56.90
2023-11-25T21:24:23.842Z,56.65
2023-11-25T21:29:28.903Z,56.33
2023-11-25T21:34:32.658Z,56.30
2023-11-25T21:39:36.168Z,56.19
2023-11-25T21:44:41.318Z,56.20
2023-11-25T21:49:45.144Z,56.52
2023-11-25T21:54:48.840Z,56.59
2023-11-25T21:59:54.302Z,56.78
2023-11-25T22:04:57.987Z,56.98
2023-11-25T22:10:02.112Z,56.62
2023-11-25T22:15:08.638Z,56.73
2023-11-25T22:20:12.790Z,56.92
2023-11-25T22:25:27.148Z,56.50
2023-11-25T22:30:32.477Z,56.60
2023-11-25T22:35:47.765Z,56.29
2023-11-25T22:40:59.298Z,56.64
2023-11-25T22:46:06.421Z,56.69
2023-11-25T22:51:10.119Z,56.65
2023-11-25T22:56:13.877Z,56.26
2023-11-25T23:01:20.845Z,56.15
2023-11-25T23:06:24.901Z,55.84
2023-11-25T23:11:28.636Z,56.12
2023-11-25T23:16:33.918Z,56.49
2023-11-25T23:21:37.851Z,57.40
2023-11-25T23:26:42.086Z,57.16
2023-11-25T23:31:47.169Z,57.00
2023-11-25T23:36:50.920Z,57.88
2023-11-25T23:41:54.899Z,57.32
2023-11-25T23:46:59.800Z,57.59
2023-11-25T23:52:03.995Z,57.27
2023-11-25T23:57:07.449Z,57.38
